Nattehimlen netop nu: Delvis måneformørkelse (65%) den 16.juli mellem kl.22-2330, og Perseiderne topper den 13.august med 120 stjerneskud i timen.
  • Ny Tablet venlig Vejr3


  • Vejr3>N more information Vejr3>N


    3 timers nedbørs radar more information rain snow radar


    besøg nogle andre vejrsider:

    Template dokumentation
    og downloads

    And another site


    Select another period ( hide this area )

    enheder periode Custom range Directly to
    metrisk engelsk både
    dagens ugenligt månedlig årligt
    use both date-selectors for a custom range
    forgående dag
    With this date

    WeatherUnderground graphs for this period ( click here )


    dagens sammenfatning af mandag 17 juni 2019
    tid Temp. ( °C ) Dew pt. ( °C ) vind ( km/h ) fra vindstød ( km/h ) lufttryk ( hPa ) Humid.( % ) Rainrate ( cm ) solenergi ( W/m2 )
    høj23,8 16,6 27,8 ssø ( 397/1948 ) 19,1 1019,9 97 - 1060
    gennemsnit17,5 13,7 10,4 ssø #46/188 6,1 1019,2 80 - 412 #134/188
    lav12,4 11,4 1,9   0,0 1018,3 59 -  
    dagens Tabular details for mandag 17 juni 2019
    tid Temp. ( °C ) Dew pt. ( °C ) vind ( km/h ) fra vindstød ( km/h ) lufttryk ( hPa ) Humid.( % ) Rainrate ( cm ) solenergi ( W/m2 )
    00:04 14,1 12,5 6,4 4,3 1018,4 90 - -
    00:07 14,1 12,4 6,4 ssø 4,3 1018,3 90 - -
    00:14 14,0 12,4 8,0 ssø 6,1 1018,3 90 - -
    00:19 13,9 12,5 7,4 ssø 5,6 1018,3 91 - -
    00:24 13,9 12,4 7,4 ssø 5,1 1018,3 91 - -
    00:29 13,8 12,3 6,4 5,5 1018,3 91 - -
    00:34 13,8 12,3 7,4 ssø 5,8 1018,3 91 - -
    00:39 13,7 12,2 8,0 6,3 1018,3 91 - -
    00:44 13,6 12,2 7,4 ssø 6,9 1018,3 91 - -
    00:49 13,6 12,3 9,3 ssø 6,4 1018,4 92 - -
    00:54 13,6 12,3 9,3 5,5 1018,4 92 - -
    00:59 13,5 12,2 8,0 5,8 1018,4 92 - -
    01:04 13,4 12,2 7,4 6,0 1018,4 92 - -
    01:09 13,4 12,1 7,4 5,6 1018,4 92 - -
    01:14 13,3 12,1 9,7 ssø 6,8 1018,4 92 - -
    01:19 13,3 12,0 7,4 ssø 6,3 1018,4 92 - -
    01:24 13,2 12,1 8,0 ssø 4,7 1018,3 93 - -
    01:29 13,2 12,1 5,6 4,3 1018,3 93 - -
    01:34 13,2 12,1 5,6 5,0 1018,3 93 - -
    01:39 13,2 12,1 7,4 5,6 1018,3 93 - -
    01:44 13,1 12,0 6,4 4,5 1018,3 93 - -
    01:49 13,1 12,0 5,6 ssø 3,7 1018,4 93 - -
    01:54 13,1 11,9 5,6 4,3 1018,4 93 - -
    01:59 13,0 11,9 6,4 ssø 4,3 1018,5 93 - -
    02:04 12,9 11,8 8,0 syd 4,3 1018,5 93 - -
    02:09 12,9 11,9 6,4 ssø 5,1 1018,4 94 - -
    02:14 12,9 11,9 5,6 ssø 3,5 1018,5 94 - -
    02:19 12,8 11,9 8,0 ssø 5,3 1018,5 94 - -
    02:24 12,8 11,9 7,4 ssø 6,6 1018,5 94 - -
    02:29 12,8 11,9 8,0 ssø 7,1 1018,6 94 - -
    02:34 12,8 11,8 6,4 syd 3,9 1018,6 94 - -
    02:39 12,8 11,8 5,6 syd 4,0 1018,6 94 - -
    02:44 12,7 11,8 8,0 ssø 6,0 1018,6 94 - -
    02:49 12,7 11,8 9,3 ssø 6,0 1018,6 94 - -
    02:54 12,7 11,7 11,3 7,7 1018,7 94 - -
    02:59 12,7 11,7 6,4 ssø 5,5 1018,7 94 - -
    03:04 12,6 11,7 5,6 3,2 1018,6 94 - -
    03:09 12,6 11,6 5,6 5,3 1018,6 94 - -
    03:14 12,5 11,6 7,4 7,2 1018,6 94 - -
    03:19 12,4 11,5 5,6 ssø 1,9 1018,7 94 - -
    03:24 12,4 11,4 6,4 ssø 4,3 1018,7 94 - -
    03:29 12,4 11,6 8,0 ssø 6,4 1018,8 95 - -
    03:34 12,4 11,7 7,4 ssø 7,1 1018,9 95 - -
    03:39 12,5 11,7 8,0 ssø 7,9 1018,9 95 - -
    03:44 12,6 11,8 7,4 ssø 5,6 1018,9 95 - -
    03:49 12,6 11,8 9,3 7,6 1019,0 95 - -
    03:54 12,6 11,8 5,6 ssø 6,3 1019,0 95 - -
    03:59 12,6 11,8 9,3 ssø 7,1 1019,1 95 - -
    04:04 12,6 11,8 9,7 ssø 7,9 1019,0 95 - -
    04:09 12,6 11,8 8,0 6,4 1019,0 95 - -
    04:14 12,6 11,8 8,0 7,1 1019,0 95 - -
    04:19 12,6 11,8 7,4 ssø 6,1 1019,0 95 - -
    04:24 12,6 11,8 5,6 ssø 3,4 1019,0 95 - -
    04:29 12,6 11,8 5,6 ssø 4,2 1019,0 95 - -
    04:34 12,6 11,8 5,6 ssø 3,1 1019,1 95 - 5
    04:39 12,6 11,8 5,6 ssø 3,5 1019,1 95 - 7
    04:44 12,6 11,9 5,6 syd 2,6 1019,1 96 - 7
    04:49 12,6 11,9 5,6 ssø 2,1 1019,1 96 - 9
    04:54 12,5 11,9 3,7 ssø 3,2 1019,1 96 - 11
    04:59 12,4 11,8 1,9 syd   1019,2 96 - 12
    05:04 12,4 11,8 5,6 syd 3,1 1019,2 96 - 12
    05:09 12,4 11,8 5,6 ssø 2,4 1019,2 96 - 14
    05:14 12,4 11,8 5,6 ssø 1,6 1019,2 96 - 16
    05:19 12,4 11,8 1,9 sv 0,2 1019,2 96 - 18
    05:24 12,4 11,8 5,6 ssø 1,9 1019,2 96 - 19
    05:29 12,5 11,9 3,7 ssø 0,8 1019,2 96 - 21
    05:34 12,6 11,9 5,6 syd 2,1 1019,2 96 - 23
    05:39 12,6 11,9 5,6 syd 3,2 1019,1 96 - 25
    05:44 12,6 12,0 5,6 syd 3,5 1019,1 96 - 72
    05:49 12,8 12,3 7,4 syd 3,1 1019,1 97 - 86
    05:54 13,0 12,6 5,6 ssø 3,5 1019,1 97 - 97
    05:59 13,3 12,8 5,6 ssø 3,7 1019,1 97 - 107
    06:04 13,5 12,9 6,4 6,3 1019,2 96 - 121
    06:09 13,7 13,1 6,4 ssø 4,0 1019,1 96 - 134
    06:14 14,0 13,4 5,6 ssø 2,7 1019,0 96 - 139
    06:19 14,3 13,7 5,6 ssø 2,1 1019,2 96 - 144
    06:24 14,4 13,7 5,6 syd 4,0 1019,2 95 - 155
    06:29 14,7 13,9 5,6 ssø 3,5 1019,3 95 - 160
    06:34 14,9 14,0 5,6 ssø 3,4 1019,3 94 - 174
    06:39 15,2 14,1 5,6 syd 1,4 1019,3 93 - 186
    06:44 15,3 14,1 6,4 ssø 4,2 1019,2 92 - 197
    06:49 15,6 14,3 6,4 ssø 4,3 1019,3 92 - 209
    06:54 15,8 14,2 9,7 ssø 5,6 1019,2 90 - 223
    06:59 16,0 14,2 6,4 ssø 3,7 1019,2 89 - 236
    07:04 16,2 14,2 6,4 syd 5,5 1019,3 88 - 244
    07:09 16,4 14,4 6,4 ssø 2,9 1019,3 88 - 257
    07:14 16,6 14,4 5,6 syd 1,4 1019,3 87 - 269
    07:19 16,8 14,4 7,4 sv 3,7 1019,3 86 - 279
    07:24 17,0 14,7 5,6 sv 3,1 1019,2 86 - 290
    07:29 17,3 14,7 6,4 vsv 3,2 1019,3 85 - 304
    07:34 17,6 14,8 5,6 vsv 1,3 1019,3 84 - 315
    07:39 17,9 14,8 7,4 ssø 4,7 1019,3 82 - 323
    07:44 18,4 15,3 1,9 sv   1019,3 82 - 327
    07:49 18,8 15,1 7,4 ssø 2,9 1019,3 79 - 325
    07:54 19,1 15,2 6,4 vest 4,0 1019,4 78 - 316
    07:59 19,3 14,9 5,6 sv 3,7 1019,4 76 - 313
    08:04 19,2 14,5 9,3 vest 6,1 1019,4 74 - 302
    08:09 19,3 14,8 9,3 vsv 3,5 1019,5 75 - 281
    08:14 19,4 14,3 8,0 sv 6,6 1019,5 72 - 269
    08:19 19,4 14,3 9,3 sv 5,8 1019,6 72 - 283
    08:24 19,4 14,1 8,0 vsv 6,4 1019,6 71 - 329
    08:29 19,6 14,2 5,6 vest 4,8 1019,7 71 - 397
    08:34 19,7 14,9 7,4 vnv 4,3 1019,7 74 - 448
    08:39 20,0 15,0 7,4 vsv 3,7 1019,7 73 - 464
    08:44 20,3 15,1 19,3 vsv 8,2 1019,8 72 - 478
    08:49 20,3 14,4 11,1 ssø 7,7 1019,8 69 - 485
    08:54 20,4 15,0 7,4 vsv 5,8 1019,8 71 - 497
    08:59 20,5 14,6 5,6 vnv 2,1 1019,7 69 - 508
    09:04 20,6 15,1 5,6 vest 2,3 1019,8 71 - 520
    09:09 20,8 14,9 9,3 vest 4,8 1019,7 69 - 522
    09:14 21,2 15,9 7,4 nv 4,0 1019,9 72 - 522
    09:19 21,3 15,2 11,3 vest 10,6 1019,9 68 - 520
    09:24 21,3 15,2 14,8 vnv 6,3 1019,8 68 - 503
    09:29 21,4 15,2 9,3 vest 2,7 1019,8 68 - 506
    09:34 21,3 14,7 14,8 syd 5,6 1019,9 66 - 499
    09:39 21,2 14,6 11,1 vnv 3,2 1019,9 66 - 496
    09:44 21,3 14,9 12,9 sv 8,5 1019,8 67 - 515
    09:49 21,3 15,1 9,7 ssø 4,2 1019,8 68 - 504
    09:54 21,4 14,8 9,3 vsv 2,7 1019,8 66 - 536
    09:59 21,3 14,5 9,3 ssø 5,6 1019,8 65 - 571
    10:04 21,2 14,6 14,8 vsv 4,7 1019,8 66 - 584
    10:09 21,5 14,9 9,7 vnv 6,3 1019,8 66 - 230
    10:14 21,7 15,1 13,0 vest 9,0 1019,8 66 - 221
    10:19 21,7 14,3 9,7 syd 3,5 1019,8 63 - 193
    10:24 21,6 14,4 7,4 syd 4,0 1019,8 64 - 858
    10:29 21,4 15,1 8,0 nv 3,9 1019,8 67 - 179
    10:34 21,4 14,8 9,7 vsv 7,6 1019,8 66 - 221
    10:39 21,3 14,2 14,8 syd 8,7 1019,8 64 - 188
    10:44 21,2 13,8 14,8 vsv 5,6 1019,8 63 - 262
    10:49 21,1 14,2 20,4 vest 11,4 1019,9 65 - 260
    10:54 20,9 13,9 16,1 vsv 8,5 1019,8 64 - 269
    10:59 20,8 14,2 7,4 vnv 6,3 1019,8 66 - 202
    11:04 20,7 14,1 11,1 ssø 6,8 1019,8 66 - 178
    11:09 20,4 13,7 17,7 sv 9,0 1019,8 65 - 237
    11:14 20,3 13,9 11,3 sv 5,5 1019,8 67 - 244
    11:19 20,1 13,6 11,1 vsv 5,8 1019,8 66 - 302
    11:24 20,1 13,8 11,1 syd 9,5 1019,7 67 - 253
    11:29 20,0 13,4 14,5 sv 5,8 1019,7 66 - 195
    11:34 19,9 13,8 11,1 sv 4,7 1019,7 68 - 158
    11:39 20,1 15,1 14,5 ssø 4,2 1019,7 73 - 854
    11:44 20,4 14,3 11,1 ssø 8,8 1019,6 68 - 889
    11:49 20,7 15,1 11,1 sv 9,7 1019,6 70 - 889
    11:54 20,9 13,8 16,7 ssø 6,6 1019,6 64 - 1018
    11:59 21,2 14,4 18,5 ssø 13,2 1019,6 65 - 925
    12:04 21,5 14,7 11,1 vsv 4,8 1019,7 65 - 223
    12:09 21,7 15,1 18,5 vsv 10,3 1019,6 66 - 893
    12:14 21,9 14,8 14,8 vest 9,3 1019,6 64 - 1013
    12:19 22,0 15,1 9,7 ssø 8,2 1019,7 65 - 353
    12:24 22,0 14,9 20,9 syd 14,2 1019,7 64 - 229
    12:29 21,9 14,6 18,5 sv 5,1 1019,7 63 - 258
    12:34 21,8 14,7 18,5 ssø 11,3 1019,8 64 - 506
    12:39 21,7 14,8 20,4 syd 7,4 1019,7 65 - 1049
    12:44 21,8 14,7 27,8 ssø 16,3 1019,7 64 - 1034
    12:49 21,9 14,8 22,2 ssø 10,6 1019,7 64 - 969
    12:54 21,8 14,9 19,3 syd 8,0 1019,7 65 - 984
    12:59 21,7 14,4 18,5 vsv 11,9 1019,6 63 - 227
    13:04 21,5 14,7 18,5 syd 8,7 1019,7 65 - 928
    13:09 21,6 14,7 18,5 ssø 10,8 1019,6 65 - 214
    13:14 21,6 14,7 20,4 ssø 8,7 1019,7 65 - 977
    13:19 21,8 15,2 24,1 ssø 13,7 1019,7 66 - 932
    13:24 22,1 15,0 11,1 sv 8,8 1019,7 64 - 236
    13:29 21,9 14,8 14,8 vest 5,5 1019,6 64 - 371
    13:34 21,8 14,9 20,4 vsv 6,6 1019,6 65 - 1060
    13:39 22,0 15,3 11,3 ssø 5,5 1019,5 66 - 364
    13:44 22,2 15,1 24,1 ssø 19,1 1019,5 64 - 1025
    13:49 22,0 15,3 14,8 ssø 5,8 1019,6 66 - 944
    13:54 21,8 14,4 18,5 vest 8,5 1019,5 63 - 193
    13:59 21,7 15,3 13,0 vsv 9,8 1019,5 67 - 995
    14:04 21,9 16,0 24,1 syd 13,8 1019,5 69 - 956
    14:09 22,2 15,8 17,7 ssø 12,7 1019,5 67 - 863
    14:14 22,3 15,6 17,7 ssø 6,8 1019,5 66 - 905
    14:19 22,4 15,2 18,5 ssø 8,2 1019,5 64 - 877
    14:24 22,3 14,9 16,7 vsv 8,5 1019,4 63 - 237
    14:29 22,3 16,6 8,0 ssø 6,0 1019,5 70 - 896
    14:34 22,4 15,3 14,8 vnv 9,3 1019,4 64 - 190
    14:39 22,4 15,1 24,1 sv 18,3 1019,5 63 - 318
    14:44 22,6 15,9 18,5 nv 8,7 1019,6 66 - 844
    14:49 22,7 15,8 18,5 vsv 10,8 1019,5 65 - 970
    14:54 22,8 15,6 20,9 vsv 8,0 1019,6 64 - 359
    14:59 22,9 15,9 18,5 syd 7,7 1019,4 65 - 935
    15:04 23,1 15,6 13,0 vsv 5,1 1019,5 63 - 844
    15:09 23,3 16,4 18,5 ssø 11,6 1019,5 65 - 833
    15:14 23,7 16,2 14,5 ssø 5,1 1019,5 63 - 171
    15:19 23,8 16,4 20,4 ssø 13,8 1019,5 63 - 846
    15:24 23,8 15,3 18,5 vsv 10,1 1019,5 59 - 388
    15:29 23,8 16,6 14,5 nv 10,6 1019,5 64 - 304
    15:34 23,6 15,9 11,3 vsv 7,1 1019,5 62 - 294
    15:39 23,4 15,5 18,5 sv 11,7 1019,5 61 - 262
    dagens sammenfatning af mandag 17 juni 2019
    tid Temp. ( °C ) Dew pt. ( °C ) vind ( km/h ) fra vindstød ( km/h ) lufttryk ( hPa ) Humid.( % ) Rainrate ( cm ) solenergi ( W/m2 )
    høj23,8 16,6 27,8 ssø ( 397/1948 ) 19,1 1019,9 97 - 1060
    gennemsnit17,5 13,7 10,4 ssø #46/188 6,1 1019,2 80 - 412 #134/188
    lav12,4 11,4 1,9   0,0 1018,3 59 -  
    dagens Tabular details for mandag 17 juni 2019
    tid Temp. ( °C ) Dew pt. ( °C ) vind ( km/h ) fra vindstød ( km/h ) lufttryk ( hPa ) Humid.( % ) Rainrate ( cm ) solenergi ( W/m2 )
    00:04 14,1 12,5 6,4 4,3 1018,4 90 - -
    00:07 14,1 12,4 6,4 ssø 4,3 1018,3 90 - -
    00:14 14,0 12,4 8,0 ssø 6,1 1018,3 90 - -
    00:19 13,9 12,5 7,4 ssø 5,6 1018,3 91 - -
    00:24 13,9 12,4 7,4 ssø 5,1 1018,3 91 - -
    00:29 13,8 12,3 6,4 5,5 1018,3 91 - -
    00:34 13,8 12,3 7,4 ssø 5,8 1018,3 91 - -
    00:39 13,7 12,2 8,0 6,3 1018,3 91 - -
    00:44 13,6 12,2 7,4 ssø 6,9 1018,3 91 - -
    00:49 13,6 12,3 9,3 ssø 6,4 1018,4 92 - -
    00:54 13,6 12,3 9,3 5,5 1018,4 92 - -
    00:59 13,5 12,2 8,0 5,8 1018,4 92 - -
    01:04 13,4 12,2 7,4 6,0 1018,4 92 - -
    01:09 13,4 12,1 7,4 5,6 1018,4 92 - -
    01:14 13,3 12,1 9,7 ssø 6,8 1018,4 92 - -
    01:19 13,3 12,0 7,4 ssø 6,3 1018,4 92 - -
    01:24 13,2 12,1 8,0 ssø 4,7 1018,3 93 - -
    01:29 13,2 12,1 5,6 4,3 1018,3 93 - -
    01:34 13,2 12,1 5,6 5,0 1018,3 93 - -
    01:39 13,2 12,1 7,4 5,6 1018,3 93 - -
    01:44 13,1 12,0 6,4 4,5 1018,3 93 - -
    01:49 13,1 12,0 5,6 ssø 3,7 1018,4 93 - -
    01:54 13,1 11,9 5,6 4,3 1018,4 93 - -
    01:59 13,0 11,9 6,4 ssø 4,3 1018,5 93 - -
    02:04 12,9 11,8 8,0 syd 4,3 1018,5 93 - -
    02:09 12,9 11,9 6,4 ssø 5,1 1018,4 94 - -
    02:14 12,9 11,9 5,6 ssø 3,5 1018,5 94 - -
    02:19 12,8 11,9 8,0 ssø 5,3 1018,5 94 - -
    02:24 12,8 11,9 7,4 ssø 6,6 1018,5 94 - -
    02:29 12,8 11,9 8,0 ssø 7,1 1018,6 94 - -
    02:34 12,8 11,8 6,4 syd 3,9 1018,6 94 - -
    02:39 12,8 11,8 5,6 syd 4,0 1018,6 94 - -
    02:44 12,7 11,8 8,0 ssø 6,0 1018,6 94 - -
    02:49 12,7 11,8 9,3 ssø 6,0 1018,6 94 - -
    02:54 12,7 11,7 11,3 7,7 1018,7 94 - -
    02:59 12,7 11,7 6,4 ssø 5,5 1018,7 94 - -
    03:04 12,6 11,7 5,6 3,2 1018,6 94 - -
    03:09 12,6 11,6 5,6 5,3 1018,6 94 - -
    03:14 12,5 11,6 7,4 7,2 1018,6 94 - -
    03:19 12,4 11,5 5,6 ssø 1,9 1018,7 94 - -
    03:24 12,4 11,4 6,4 ssø 4,3 1018,7 94 - -
    03:29 12,4 11,6 8,0 ssø 6,4 1018,8 95 - -
    03:34 12,4 11,7 7,4 ssø 7,1 1018,9 95 - -
    03:39 12,5 11,7 8,0 ssø 7,9 1018,9 95 - -
    03:44 12,6 11,8 7,4 ssø 5,6 1018,9 95 - -
    03:49 12,6 11,8 9,3 7,6 1019,0 95 - -
    03:54 12,6 11,8 5,6 ssø 6,3 1019,0 95 - -
    03:59 12,6 11,8 9,3 ssø 7,1 1019,1 95 - -
    04:04 12,6 11,8 9,7 ssø 7,9 1019,0 95 - -
    04:09 12,6 11,8 8,0 6,4 1019,0 95 - -
    04:14 12,6 11,8 8,0 7,1 1019,0 95 - -
    04:19 12,6 11,8 7,4 ssø 6,1 1019,0 95 - -
    04:24 12,6 11,8 5,6 ssø 3,4 1019,0 95 - -
    04:29 12,6 11,8 5,6 ssø 4,2 1019,0 95 - -
    04:34 12,6 11,8 5,6 ssø 3,1 1019,1 95 - 5
    04:39 12,6 11,8 5,6 ssø 3,5 1019,1 95 - 7
    04:44 12,6 11,9 5,6 syd 2,6 1019,1 96 - 7
    04:49 12,6 11,9 5,6 ssø 2,1 1019,1 96 - 9
    04:54 12,5 11,9 3,7 ssø 3,2 1019,1 96 - 11
    04:59 12,4 11,8 1,9 syd   1019,2 96 - 12
    05:04 12,4 11,8 5,6 syd 3,1 1019,2 96 - 12
    05:09 12,4 11,8 5,6 ssø 2,4 1019,2 96 - 14
    05:14 12,4 11,8 5,6 ssø 1,6 1019,2 96 - 16
    05:19 12,4 11,8 1,9 sv 0,2 1019,2 96 - 18
    05:24 12,4 11,8 5,6 ssø 1,9 1019,2 96 - 19
    05:29 12,5 11,9 3,7 ssø 0,8 1019,2 96 - 21
    05:34 12,6 11,9 5,6 syd 2,1 1019,2 96 - 23
    05:39 12,6 11,9 5,6 syd 3,2 1019,1 96 - 25
    05:44 12,6 12,0 5,6 syd 3,5 1019,1 96 - 72
    05:49 12,8 12,3 7,4 syd 3,1 1019,1 97 - 86
    05:54 13,0 12,6 5,6 ssø 3,5 1019,1 97 - 97
    05:59 13,3 12,8 5,6 ssø 3,7 1019,1 97 - 107
    06:04 13,5 12,9 6,4 6,3 1019,2 96 - 121
    06:09 13,7 13,1 6,4 ssø 4,0 1019,1 96 - 134
    06:14 14,0 13,4 5,6 ssø 2,7 1019,0 96 - 139
    06:19 14,3 13,7 5,6 ssø 2,1 1019,2 96 - 144
    06:24 14,4 13,7 5,6 syd 4,0 1019,2 95 - 155
    06:29 14,7 13,9 5,6 ssø 3,5 1019,3 95 - 160
    06:34 14,9 14,0 5,6 ssø 3,4 1019,3 94 - 174
    06:39 15,2 14,1 5,6 syd 1,4 1019,3 93 - 186
    06:44 15,3 14,1 6,4 ssø 4,2 1019,2 92 - 197
    06:49 15,6 14,3 6,4 ssø 4,3 1019,3 92 - 209
    06:54 15,8 14,2 9,7 ssø 5,6 1019,2 90 - 223
    06:59 16,0 14,2 6,4 ssø 3,7 1019,2 89 - 236
    07:04 16,2 14,2 6,4 syd 5,5 1019,3 88 - 244
    07:09 16,4 14,4 6,4 ssø 2,9 1019,3 88 - 257
    07:14 16,6 14,4 5,6 syd 1,4 1019,3 87 - 269
    07:19 16,8 14,4 7,4 sv 3,7 1019,3 86 - 279
    07:24 17,0 14,7 5,6 sv 3,1 1019,2 86 - 290
    07:29 17,3 14,7 6,4 vsv 3,2 1019,3 85 - 304
    07:34 17,6 14,8 5,6 vsv 1,3 1019,3 84 - 315
    07:39 17,9 14,8 7,4 ssø 4,7 1019,3 82 - 323
    07:44 18,4 15,3 1,9 sv   1019,3 82 - 327
    07:49 18,8 15,1 7,4 ssø 2,9 1019,3 79 - 325
    07:54 19,1 15,2 6,4 vest 4,0 1019,4 78 - 316
    07:59 19,3 14,9 5,6 sv 3,7 1019,4 76 - 313
    08:04 19,2 14,5 9,3 vest 6,1 1019,4 74 - 302
    08:09 19,3 14,8 9,3 vsv 3,5 1019,5 75 - 281
    08:14 19,4 14,3 8,0 sv 6,6 1019,5 72 - 269
    08:19 19,4 14,3 9,3 sv 5,8 1019,6 72 - 283
    08:24 19,4 14,1 8,0 vsv 6,4 1019,6 71 - 329
    08:29 19,6 14,2 5,6 vest 4,8 1019,7 71 - 397
    08:34 19,7 14,9 7,4 vnv 4,3 1019,7 74 - 448
    08:39 20,0 15,0 7,4 vsv 3,7 1019,7 73 - 464
    08:44 20,3 15,1 19,3 vsv 8,2 1019,8 72 - 478
    08:49 20,3 14,4 11,1 ssø 7,7 1019,8 69 - 485
    08:54 20,4 15,0 7,4 vsv 5,8 1019,8 71 - 497
    08:59 20,5 14,6 5,6 vnv 2,1 1019,7 69 - 508
    09:04 20,6 15,1 5,6 vest 2,3 1019,8 71 - 520
    09:09 20,8 14,9 9,3 vest 4,8 1019,7 69 - 522
    09:14 21,2 15,9 7,4 nv 4,0 1019,9 72 - 522
    09:19 21,3 15,2 11,3 vest 10,6 1019,9 68 - 520
    09:24 21,3 15,2 14,8 vnv 6,3 1019,8 68 - 503
    09:29 21,4 15,2 9,3 vest 2,7 1019,8 68 - 506
    09:34 21,3 14,7 14,8 syd 5,6 1019,9 66 - 499
    09:39 21,2 14,6 11,1 vnv 3,2 1019,9 66 - 496
    09:44 21,3 14,9 12,9 sv 8,5 1019,8 67 - 515
    09:49 21,3 15,1 9,7 ssø 4,2 1019,8 68 - 504
    09:54 21,4 14,8 9,3 vsv 2,7 1019,8 66 - 536
    09:59 21,3 14,5 9,3 ssø 5,6 1019,8 65 - 571
    10:04 21,2 14,6 14,8 vsv 4,7 1019,8 66 - 584
    10:09 21,5 14,9 9,7 vnv 6,3 1019,8 66 - 230
    10:14 21,7 15,1 13,0 vest 9,0 1019,8 66 - 221
    10:19 21,7 14,3 9,7 syd 3,5 1019,8 63 - 193
    10:24 21,6 14,4 7,4 syd 4,0 1019,8 64 - 858
    10:29 21,4 15,1 8,0 nv 3,9 1019,8 67 - 179
    10:34 21,4 14,8 9,7 vsv 7,6 1019,8 66 - 221
    10:39 21,3 14,2 14,8 syd 8,7 1019,8 64 - 188
    10:44 21,2 13,8 14,8 vsv 5,6 1019,8 63 - 262
    10:49 21,1 14,2 20,4 vest 11,4 1019,9 65 - 260
    10:54 20,9 13,9 16,1 vsv 8,5 1019,8 64 - 269
    10:59 20,8 14,2 7,4 vnv 6,3 1019,8 66 - 202
    11:04 20,7 14,1 11,1 ssø 6,8 1019,8 66 - 178
    11:09 20,4 13,7 17,7 sv 9,0 1019,8 65 - 237
    11:14 20,3 13,9 11,3 sv 5,5 1019,8 67 - 244
    11:19 20,1 13,6 11,1 vsv 5,8 1019,8 66 - 302
    11:24 20,1 13,8 11,1 syd 9,5 1019,7 67 - 253
    11:29 20,0 13,4 14,5 sv 5,8 1019,7 66 - 195
    11:34 19,9 13,8 11,1 sv 4,7 1019,7 68 - 158
    11:39 20,1 15,1 14,5 ssø 4,2 1019,7 73 - 854
    11:44 20,4 14,3 11,1 ssø 8,8 1019,6 68 - 889
    11:49 20,7 15,1 11,1 sv 9,7 1019,6 70 - 889
    11:54 20,9 13,8 16,7 ssø 6,6 1019,6 64 - 1018
    11:59 21,2 14,4 18,5 ssø 13,2 1019,6 65 - 925
    12:04 21,5 14,7 11,1 vsv 4,8 1019,7 65 - 223
    12:09 21,7 15,1 18,5 vsv 10,3 1019,6 66 - 893
    12:14 21,9 14,8 14,8 vest 9,3 1019,6 64 - 1013
    12:19 22,0 15,1 9,7 ssø 8,2 1019,7 65 - 353
    12:24 22,0 14,9 20,9 syd 14,2 1019,7 64 - 229
    12:29 21,9 14,6 18,5 sv 5,1 1019,7 63 - 258
    12:34 21,8 14,7 18,5 ssø 11,3 1019,8 64 - 506
    12:39 21,7 14,8 20,4 syd 7,4 1019,7 65 - 1049
    12:44 21,8 14,7 27,8 ssø 16,3 1019,7 64 - 1034
    12:49 21,9 14,8 22,2 ssø 10,6 1019,7 64 - 969
    12:54 21,8 14,9 19,3 syd 8,0 1019,7 65 - 984
    12:59 21,7 14,4 18,5 vsv 11,9 1019,6 63 - 227
    13:04 21,5 14,7 18,5 syd 8,7 1019,7 65 - 928
    13:09 21,6 14,7 18,5 ssø 10,8 1019,6 65 - 214
    13:14 21,6 14,7 20,4 ssø 8,7 1019,7 65 - 977
    13:19 21,8 15,2 24,1 ssø 13,7 1019,7 66 - 932
    13:24 22,1 15,0 11,1 sv 8,8 1019,7 64 - 236
    13:29 21,9 14,8 14,8 vest 5,5 1019,6 64 - 371
    13:34 21,8 14,9 20,4 vsv 6,6 1019,6 65 - 1060
    13:39 22,0 15,3 11,3 ssø 5,5 1019,5 66 - 364
    13:44 22,2 15,1 24,1 ssø 19,1 1019,5 64 - 1025
    13:49 22,0 15,3 14,8 ssø 5,8 1019,6 66 - 944
    13:54 21,8 14,4 18,5 vest 8,5 1019,5 63 - 193
    13:59 21,7 15,3 13,0 vsv 9,8 1019,5 67 - 995
    14:04 21,9 16,0 24,1 syd 13,8 1019,5 69 - 956
    14:09 22,2 15,8 17,7 ssø 12,7 1019,5 67 - 863
    14:14 22,3 15,6 17,7 ssø 6,8 1019,5 66 - 905
    14:19 22,4 15,2 18,5 ssø 8,2 1019,5 64 - 877
    14:24 22,3 14,9 16,7 vsv 8,5 1019,4 63 - 237
    14:29 22,3 16,6 8,0 ssø 6,0 1019,5 70 - 896
    14:34 22,4 15,3 14,8 vnv 9,3 1019,4 64 - 190
    14:39 22,4 15,1 24,1 sv 18,3 1019,5 63 - 318
    14:44 22,6 15,9 18,5 nv 8,7 1019,6 66 - 844
    14:49 22,7 15,8 18,5 vsv 10,8 1019,5 65 - 970
    14:54 22,8 15,6 20,9 vsv 8,0 1019,6 64 - 359
    14:59 22,9 15,9 18,5 syd 7,7 1019,4 65 - 935
    15:04 23,1 15,6 13,0 vsv 5,1 1019,5 63 - 844
    15:09 23,3 16,4 18,5 ssø 11,6 1019,5 65 - 833
    15:14 23,7 16,2 14,5 ssø 5,1 1019,5 63 - 171
    15:19 23,8 16,4 20,4 ssø 13,8 1019,5 63 - 846
    15:24 23,8 15,3 18,5 vsv 10,1 1019,5 59 - 388
    15:29 23,8 16,6 14,5 nv 10,6 1019,5 64 - 304
    15:34 23,6 15,9 11,3 vsv 7,1 1019,5 62 - 294
    15:39 23,4 15,5 18,5 sv 11,7 1019,5 61 - 262

    Download your copy of this data-set  here

    Our weather-data as stored at Weather Underground. script udviklet af Jim McMurry. tilpasset til dette template Leuven-Template.eu

    du finder også vores vejrinformationer på:

    European Weather Network

    Weather Underground

    AWEKAS

    WeatherlinkIP

    Citizen Weather Observer Program (CWOP)

    udstyr som vi anvender:

    vejrstation
    Davis VP2+

    vejrprogram
    Weather Display

    vejrserver
    Dell E6400

    hjemmeside host
    Webhosting.dk

    Davis VP2+

    Weather Display

    Dell E6400

    Webhosting.dk